Time;durP1;ratioP1;P1;durP2;ratioP2;P2;SDS_P1;SDS_P2;PMS_P1;PMS_P2;Temp;Humidity;BMP_temperature;BMP_pressure;BME280_temperature;BME280_humidity;BME280_pressure;Samples;Min_cycle;Max_cycle;Signal;HPM_P1;HPM_P2
2022/01/23 16:49:20;;;;;;;15.88;5.90;;;;;;;20.82;41.57;102338.16;5047034;28;20803;-49
2022/01/23 16:51:45;;;;;;;16.38;6.30;;;;;;;21.52;39.15;102335.38;5043310;28;20049;-45
2022/01/23 16:54:13;;;;;;;19.90;6.20;;;;;;;21.60;38.47;102329.97;5075615;28;20512;-47
2022/01/23 16:56:39;;;;;;;19.02;5.93;;;;;;;21.60;38.16;102337.22;5043065;28;20034;-48
2022/01/23 16:59:06;;;;;;;15.82;5.95;;;;;;;21.57;38.03;102330.31;5033490;28;20030;-51
2022/01/23 17:01:32;;;;;;;11.70;5.90;;;;;;;21.58;38.40;102334.69;5035823;28;20068;-49
2022/01/23 17:03:57;;;;;;;17.70;5.97;;;;;;;21.61;37.88;102345.06;5027871;28;20076;-53
2022/01/23 17:06:24;;;;;;;15.20;5.78;;;;;;;21.77;39.32;102337.91;5046852;28;20095;-48
2022/01/23 17:08:50;;;;;;;18.30;5.45;;;;;;;21.85;38.54;102333.25;5047841;28;20095;-49
2022/01/23 17:11:15;;;;;;;13.57;4.70;;;;;;;21.93;39.08;102332.38;5043374;28;20041;-47
2022/01/23 17:13:43;;;;;;;11.25;5.18;;;;;;;21.94;39.14;102325.94;5047341;28;20099;-49
2022/01/23 17:16:09;;;;;;;11.45;4.82;;;;;;;21.96;39.24;102326.59;5051728;28;20106;-46
2022/01/23 17:18:35;;;;;;;11.63;5.05;;;;;;;21.97;39.57;102322.88;5055118;28;20037;-45
2022/01/23 17:21:00;;;;;;;10.73;4.85;;;;;;;22.01;39.48;102323.38;5054413;28;20100;-45
2022/01/23 17:23:25;;;;;;;7.13;4.20;;;;;;;22.01;41.24;102320.66;5049739;28;20572;-47
2022/01/23 17:25:51;;;;;;;7.07;4.40;;;;;;;22.02;40.25;102322.34;5050751;28;20291;-49
2022/01/23 17:28:16;;;;;;;13.10;4.90;;;;;;;22.06;40.09;102326.34;5049976;28;20086;-46
2022/01/23 17:30:41;;;;;;;10.25;4.55;;;;;;;22.07;39.48;102330.69;5051170;28;20053;-49
2022/01/23 17:33:07;;;;;;;9.07;4.60;;;;;;;22.08;40.10;102324.31;5048673;28;20075;-46
2022/01/23 17:35:33;;;;;;;9.00;4.63;;;;;;;22.08;39.71;102326.16;5048021;28;20041;-44
2022/01/23 17:37:59;;;;;;;10.77;4.57;;;;;;;22.05;38.71;102324.69;5053294;28;20056;-44
2022/01/23 17:40:24;;;;;;;12.30;4.60;;;;;;;22.06;38.97;102326.34;5048576;28;20053;-46
2022/01/23 17:42:50;;;;;;;14.98;4.53;;;;;;;22.08;38.60;102318.91;5057072;28;20718;-45
2022/01/23 17:45:22;;;;;;;10.20;4.32;;;;;;;22.08;39.37;102323.47;5058466;28;20527;-48
2022/01/23 17:50:20;;;;;;;14.55;5.18;;;;;;;22.04;39.38;102323.00;5049176;28;20044;-45
2022/01/23 17:52:48;;;;;;;8.85;4.30;;;;;;;22.00;38.64;102310.91;5047415;28;20037;-45
2022/01/23 17:55:14;;;;;;;8.85;3.95;;;;;;;21.96;38.96;102315.84;5049997;28;20047;-47
2022/01/23 17:57:39;;;;;;;12.55;4.57;;;;;;;21.95;38.89;102319.56;5056699;28;20713;-48
2022/01/23 18:00:07;;;;;;;8.98;4.10;;;;;;;21.95;39.35;102324.09;5035624;28;20124;-44
2022/01/23 18:02:33;;;;;;;8.82;4.18;;;;;;;21.91;38.77;102318.25;5032760;28;20037;-45
2022/01/23 18:04:59;;;;;;;12.20;4.53;;;;;;;21.88;39.19;102304.28;5042604;28;20144;-46
2022/01/23 18:07:25;;;;;;;10.55;4.35;;;;;;;21.87;38.84;102319.63;5044196;28;20216;-46
2022/01/23 18:09:50;;;;;;;12.70;4.20;;;;;;;21.88;38.58;102315.94;5034230;28;20095;-46
2022/01/23 18:12:15;;;;;;;11.52;4.50;;;;;;;21.91;40.31;102320.09;5045728;28;20043;-48
2022/01/23 18:14:46;;;;;;;11.27;4.18;;;;;;;21.93;39.98;102323.44;5039636;28;20056;-48
2022/01/23 18:17:12;;;;;;;;;;;;;;;21.95;40.95;102324.94;5043075;28;20049;-48
2022/01/23 18:19:37;;;;;;;11.88;4.53;;;;;;;21.97;41.15;102322.88;5039397;28;19917;-46
2022/01/23 18:22:02;;;;;;;7.93;4.20;;;;;;;21.97;41.60;102327.44;5043865;28;20038;-45
2022/01/23 18:24:28;;;;;;;6.20;4.13;;;;;;;21.97;41.06;102322.06;5032168;28;20586;-47
2022/01/23 18:26:54;;;;;;;10.05;4.07;;;;;;;21.96;40.49;102321.22;5042653;28;20073;-46
2022/01/23 18:29:19;;;;;;;6.97;4.20;;;;;;;21.94;40.34;102319.72;5035106;28;20041;-46
2022/01/23 18:31:45;;;;;;;9.15;4.13;;;;;;;21.94;39.40;102322.44;5044974;28;20033;-50
2022/01/23 18:34:11;;;;;;;11.57;4.38;;;;;;;21.90;39.53;102324.63;5033465;28;20065;-45
2022/01/23 18:36:36;;;;;;;10.82;3.80;;;;;;;21.88;39.38;102325.84;5046766;28;20065;-46
2022/01/23 18:39:04;;;;;;;12.73;4.18;;;;;;;21.87;39.41;102316.09;5043979;28;20090;-50
2022/01/23 18:41:29;;;;;;;7.13;4.15;;;;;;;21.83;39.50;102321.84;5039102;28;20047;-47
2022/01/23 18:43:56;;;;;;;7.53;4.40;;;;;;;21.82;39.99;102319.34;5036937;28;20728;-45
2022/01/23 18:46:22;;;;;;;6.07;3.65;;;;;;;21.80;39.65;102326.75;5040422;28;20504;-50
2022/01/23 18:48:48;;;;;;;8.15;3.92;;;;;;;21.79;39.30;102327.78;5035482;28;20096;-48
2022/01/23 18:51:14;;;;;;;9.60;4.20;;;;;;;21.75;39.00;102321.91;5038618;28;20049;-49
2022/01/23 18:53:42;;;;;;;9.52;4.10;;;;;;;21.75;39.18;102332.69;5042427;28;20087;-47
2022/01/23 18:56:12;;;;;;;11.65;4.22;;;;;;;21.71;38.96;102327.84;5038039;28;20041;-47
2022/01/23 18:58:42;;;;;;;7.35;3.85;;;;;;;21.69;38.87;102330.75;5045162;28;20052;-46
2022/01/23 19:01:13;;;;;;;6.13;3.88;;;;;;;21.65;38.64;102321.34;5036885;28;20040;-47
2022/01/23 19:03:47;;;;;;;5.70;3.78;;;;;;;21.63;38.91;102320.69;5041947;28;20041;-47
2022/01/23 19:06:19;;;;;;;5.30;3.55;;;;;;;21.61;38.98;102317.31;5030577;28;20037;-52
2022/01/23 19:08:47;;;;;;;9.10;4.15;;;;;;;21.61;39.10;102330.78;5032656;28;20034;-48
2022/01/23 19:11:12;;;;;;;8.85;3.80;;;;;;;21.56;38.98;102322.41;5031659;28;20061;-48
2022/01/23 19:13:37;;;;;;;6.88;4.20;;;;;;;21.52;38.77;102321.94;5042381;28;20065;-47
2022/01/23 19:16:03;;;;;;;7.20;3.97;;;;;;;21.50;38.97;102331.22;5042792;28;20029;-47
2022/01/23 19:18:30;;;;;;;10.98;4.07;;;;;;;21.47;38.84;102332.41;5039939;28;20768;-45
2022/01/23 19:20:56;;;;;;;10.18;3.97;;;;;;;21.46;39.18;102330.75;5036016;28;20080;-46
2022/01/23 19:23:21;;;;;;;8.82;4.32;;;;;;;21.52;39.43;102334.56;5043048;28;20037;-47
2022/01/23 19:25:48;;;;;;;8.05;3.95;;;;;;;21.55;39.14;102339.59;5040020;28;20090;-48
2022/01/23 19:28:13;;;;;;;8.13;3.80;;;;;;;21.58;40.45;102339.22;5039953;28;20064;-46
2022/01/23 19:30:41;;;;;;;9.38;4.05;;;;;;;21.59;39.80;102341.72;5036219;28;20068;-47
2022/01/23 19:33:08;;;;;;;8.48;3.35;;;;;;;21.64;40.98;102333.09;5033939;28;20726;-46
2022/01/23 19:35:35;;;;;;;13.07;4.22;;;;;;;21.69;40.31;102337.94;5042196;28;20687;-49
2022/01/23 19:38:04;;;;;;;7.18;3.83;;;;;;;21.74;40.79;102341.78;5042647;28;20033;-47
2022/01/23 19:40:56;;;;;;;8.95;3.70;;;;;;;21.81;41.08;102339.22;5042932;28;20037;-47
2022/01/23 19:45:50;;;;;;;5.75;3.53;;;;;;;20.36;35.58;102345.03;5027813;28;20034;-46
2022/01/23 19:48:24;;;;;;;12.52;3.53;;;;;;;20.19;33.83;102339.84;5033340;28;20050;-44
2022/01/23 19:50:50;;;;;;;6.60;3.72;;;;;;;20.14;33.90;102345.72;5033340;28;20578;-50
2022/01/23 19:53:15;;;;;;;5.80;3.35;;;;;;;19.81;34.03;102347.63;5047171;28;20036;-47
2022/01/23 19:55:41;;;;;;;5.57;2.88;;;;;;;19.91;32.88;102343.75;5036200;28;20056;-46
2022/01/23 19:58:07;;;;;;;4.80;3.00;;;;;;;19.48;32.58;102345.72;5032287;28;20025;-45
2022/01/23 20:00:35;;;;;;;4.85;3.22;;;;;;;19.58;32.20;102336.69;5029430;28;20056;-46
2022/01/23 20:03:00;;;;;;;4.57;3.08;;;;;;;18.26;33.40;102338.06;5048119;28;20041;-48
2022/01/23 20:05:26;;;;;;;6.38;2.88;;;;;;;18.57;34.34;102340.25;5035617;28;20051;-47
2022/01/23 20:07:51;;;;;;;3.90;2.00;;;;;;;18.89;33.39;102342.25;5045985;28;20048;-46
2022/01/23 20:10:41;;;;;;;6.00;2.45;;;;;;;19.36;32.00;102340.88;5044446;28;20686;-46
2022/01/23 20:13:06;;;;;;;4.88;2.40;;;;;;;19.37;32.11;102339.84;5045494;28;20031;-46
2022/01/23 20:15:32;;;;;;;5.45;2.60;;;;;;;19.33;31.46;102347.41;5045481;28;20713;-45
2022/01/23 20:17:58;;;;;;;3.78;2.53;;;;;;;19.14;31.75;102340.50;5036903;28;20468;-48
2022/01/23 20:20:24;;;;;;;4.18;3.03;;;;;;;18.36;33.82;102338.78;5045995;28;20060;-46
2022/01/23 20:22:50;;;;;;;6.15;2.83;;;;;;;18.56;33.34;102349.28;5041804;28;20087;-46
2022/01/23 20:25:16;;;;;;;4.13;2.60;;;;;;;18.19;33.83;102343.22;5040480;28;20029;-45
2022/01/23 20:27:43;;;;;;;4.93;2.63;;;;;;;18.22;33.61;102348.25;5035490;28;20033;-45
2022/01/23 20:30:11;;;;;;;3.38;2.42;;;;;;;18.45;33.03;102331.66;5038130;28;20047;-45
2022/01/23 20:32:37;;;;;;;3.95;2.13;;;;;;;19.28;32.88;102345.22;5032715;28;20045;-45
2022/01/23 20:35:05;;;;;;;5.57;2.22;;;;;;;19.65;32.48;102351.13;5033024;28;20041;-46
2022/01/23 20:37:31;;;;;;;4.32;2.13;;;;;;;19.77;32.14;102348.97;5037276;28;20055;-45
2022/01/23 20:39:56;;;;;;;8.80;2.20;;;;;;;19.81;32.18;102334.22;5035690;28;20128;-45
2022/01/23 20:42:21;;;;;;;5.38;1.90;;;;;;;19.89;32.66;102332.34;5042643;28;20036;-46
2022/01/23 20:44:51;;;;;;;5.72;2.08;;;;;;;19.98;32.87;102329.66;5044621;28;20037;-45
2022/01/23 20:47:21;;;;;;;3.35;1.98;;;;;;;19.98;33.16;102329.66;5030918;28;20090;-45
2022/01/23 20:49:48;;;;;;;6.68;1.98;;;;;;;20.04;32.59;102329.81;5046199;28;20508;-45
2022/01/23 20:54:59;;;;;;;2.40;1.70;;;;;;;20.08;32.49;102330.31;5036362;28;20060;-44
2022/01/23 20:57:24;;;;;;;2.80;1.40;;;;;;;20.08;32.10;102333.81;5030429;28;20120;-46
2022/01/23 20:59:50;;;;;;;4.97;1.63;;;;;;;20.13;32.03;102333.31;5037929;28;20428;-45
2022/01/23 21:02:17;;;;;;;3.10;1.65;;;;;;;20.16;31.74;102341.03;5040025;28;20029;-45
2022/01/23 21:04:42;;;;;;;6.43;1.50;;;;;;;20.18;31.85;102328.28;5041633;28;20627;-47
2022/01/23 21:07:08;;;;;;;3.03;1.67;;;;;;;20.18;31.43;102332.81;5041292;28;20042;-48
2022/01/23 21:09:33;;;;;;;2.55;1.60;;;;;;;20.19;31.63;102337.16;5031531;28;20369;-46
2022/01/23 21:11:59;;;;;;;3.05;1.67;;;;;;;20.21;31.62;102340.50;5040394;28;20358;-45
2022/01/23 21:14:33;;;;;;;4.40;1.63;;;;;;;20.20;31.61;102349.59;5042882;28;20107;-47
2022/01/23 21:17:48;;;;;;;4.45;1.60;;;;;;;20.19;32.09;102342.53;5040552;28;20030;-49
2022/01/23 21:38:31;;;;;;;2.47;1.30;;;;;;;21.10;35.07;102335.84;5048312;28;20048;-45
2022/01/23 21:40:57;;;;;;;4.32;1.48;;;;;;;21.14;37.42;102334.44;5038901;28;20041;-47
2022/01/23 21:43:22;;;;;;;8.27;1.40;;;;;;;21.19;37.09;102334.78;5039340;28;20182;-46
2022/01/23 21:45:47;;;;;;;8.95;1.50;;;;;;;21.24;37.85;102327.00;5041528;28;20424;-46
2022/01/23 21:48:13;;;;;;;4.55;1.52;;;;;;;21.31;38.72;102330.66;5041260;28;20508;-46
2022/01/23 21:50:40;;;;;;;2.53;1.25;;;;;;;21.36;39.02;102330.94;5042467;28;20052;-46
2022/01/23 21:53:05;;;;;;;3.30;1.20;;;;;;;21.38;38.23;102322.69;5036817;28;20057;-44
2022/01/23 21:55:31;;;;;;;5.05;1.30;;;;;;;21.43;37.89;102320.34;5031855;28;20071;-45
2022/01/23 21:57:56;;;;;;;6.57;1.30;;;;;;;21.47;37.79;102323.50;5044401;28;20630;-47
2022/01/23 22:00:22;;;;;;;2.47;1.25;;;;;;;21.48;37.58;102328.72;5047653;28;20045;-44
2022/01/23 22:02:47;;;;;;;4.63;1.30;;;;;;;21.50;38.02;102321.31;5037445;28;20041;-49
2022/01/23 22:05:13;;;;;;;3.05;1.30;;;;;;;21.51;36.83;102314.88;5052081;28;20116;-45
2022/01/23 22:07:40;;;;;;;5.30;1.42;;;;;;;21.52;35.87;102313.84;5043544;28;20037;-47
2022/01/23 22:18:15;;;;;;;7.03;1.20;;;;;;;21.56;35.63;102314.34;5033955;28;20036;-47
2022/01/23 22:20:43;;;;;;;4.78;1.38;;;;;;;21.56;35.64;102311.66;5052801;28;20033;-47
2022/01/23 22:28:18;;;;;;;5.60;1.40;;;;;;;21.57;35.47;102316.00;5044102;28;20143;-48
2022/01/23 22:30:43;;;;;;;6.28;1.20;;;;;;;21.56;35.26;102317.88;5048291;28;20116;-47
2022/01/23 22:33:09;;;;;;;6.13;1.30;;;;;;;21.54;35.35;102313.69;5039043;28;20096;-47
2022/01/23 22:35:34;;;;;;;2.47;1.20;;;;;;;21.53;35.32;102309.34;5042962;28;20051;-46
2022/01/23 22:37:59;;;;;;;2.35;1.23;;;;;;;21.51;35.44;102309.50;5033707;28;20032;-51
2022/01/23 22:40:25;;;;;;;5.85;1.50;;;;;;;21.50;35.68;102302.47;5039469;28;20120;-49
2022/01/23 22:42:51;;;;;;;5.60;1.45;;;;;;;21.48;35.32;102300.97;5036947;28;20586;-49
2022/01/23 22:45:29;;;;;;;4.57;1.20;;;;;;;21.49;35.07;102310.69;5038000;28;20157;-48
2022/01/23 22:47:55;;;;;;;6.28;1.38;;;;;;;21.48;35.31;102312.56;5043198;28;20033;-48
2022/01/23 22:50:20;;;;;;;4.38;1.17;;;;;;;21.48;35.31;102314.44;5045443;28;20040;-47
2022/01/23 22:52:46;;;;;;;3.20;1.23;;;;;;;21.48;35.27;102319.81;5045448;28;20132;-48
2022/01/23 22:55:11;;;;;;;2.92;1.17;;;;;;;21.49;35.24;102329.53;5039862;28;20043;-47
2022/01/23 22:57:37;;;;;;;2.70;0.93;;;;;;;21.46;35.27;102325.38;5036171;28;20049;-47
2022/01/23 23:00:13;;;;;;;4.15;1.13;;;;;;;21.47;35.22;102326.19;5046663;28;20477;-49
2022/01/23 23:02:39;;;;;;;4.47;1.40;;;;;;;21.45;35.25;102322.84;5032950;28;20040;-50
2022/01/23 23:05:05;;;;;;;2.95;1.20;;;;;;;21.42;35.12;102327.56;5038761;28;20509;-47
2022/01/23 23:07:33;;;;;;;3.67;1.20;;;;;;;21.49;35.21;102324.16;5032648;28;20025;-49
